RTM weather

Rotterdam The Hague Airport
Rotterdam, Zuid-Holland, Netherlands

Public forecast

Using degrees Celsius for public forecast. Weather courtesy of forecast.io.

METAR (pilot weather report)

Retrieved 2019/05/27 13:25 UTC (0 seconds ago):

EHRD 271325Z AUTO 27012KT 230V310 9999 FEW039 17/07 Q1009 NOSIG

TAF (pilot weather forecast)

Retrieved 2019/05/27 12:27 UTC (52 minutes ago):

TAF COR EHRD 271050Z 2712/2818 25014KT 9999 FEW030 BECMG 2718/2721 VRB03KT PROB40 TEMPO 2721/2814 6000 SHRA SCT025CB BKN030 BECMG 2803/2806 03006KT PROB30 TEMPO 2803/2807 BKN008 BECMG 2810/2813 01012KT